sensor_id;sensor_type;location;lat;lon;timestamp;pressure;altitude;pressure_sealevel;temperature;humidity
25638;BME280;13496;51.040;13.680;2023-04-08T00:00:01;100113.63;;;18.24;52.08
25638;BME280;13496;51.040;13.680;2023-04-08T00:05:03;100094.81;;;18.21;52.42
25638;BME280;13496;51.040;13.680;2023-04-08T00:10:05;100099.22;;;18.20;52.32
25638;BME280;13496;51.040;13.680;2023-04-08T00:15:07;100094.81;;;18.21;52.48
25638;BME280;13496;51.040;13.680;2023-04-08T00:20:09;100102.84;;;18.19;52.40
25638;BME280;13496;51.040;13.680;2023-04-08T00:25:11;100093.50;;;18.17;52.59
25638;BME280;13496;51.040;13.680;2023-04-08T00:30:13;100096.97;;;18.17;52.39
25638;BME280;13496;51.040;13.680;2023-04-08T00:35:16;100104.00;;;18.17;52.10
25638;BME280;13496;51.040;13.680;2023-04-08T00:40:17;100106.84;;;18.15;52.29
25638;BME280;13496;51.040;13.680;2023-04-08T00:45:19;100105.56;;;18.11;52.45
25638;BME280;13496;51.040;13.680;2023-04-08T00:50:21;100107.19;;;18.12;52.25
25638;BME280;13496;51.040;13.680;2023-04-08T00:55:23;100103.94;;;18.10;52.42
25638;BME280;13496;51.040;13.680;2023-04-08T01:00:24;100099.50;;;18.10;51.98
25638;BME280;13496;51.040;13.680;2023-04-08T01:05:37;100098.84;;;18.08;52.55
25638;BME280;13496;51.040;13.680;2023-04-08T01:10:40;100097.41;;;18.06;52.26
25638;BME280;13496;51.040;13.680;2023-04-08T01:15:46;100092.97;;;18.06;52.31
25638;BME280;13496;51.040;13.680;2023-04-08T01:20:49;100100.19;;;18.04;52.40
25638;BME280;13496;51.040;13.680;2023-04-08T01:25:53;100093.13;;;18.05;52.27
25638;BME280;13496;51.040;13.680;2023-04-08T01:30:56;100087.25;;;18.03;52.15
25638;BME280;13496;51.040;13.680;2023-04-08T01:36:02;100097.75;;;18.03;52.29
25638;BME280;13496;51.040;13.680;2023-04-08T01:41:05;100090.38;;;17.98;52.27
25638;BME280;13496;51.040;13.680;2023-04-08T01:46:10;100093.66;;;18.00;52.08
25638;BME280;13496;51.040;13.680;2023-04-08T01:51:14;100092.38;;;17.96;52.11
25638;BME280;13496;51.040;13.680;2023-04-08T01:56:16;100087.94;;;17.97;52.39
25638;BME280;13496;51.040;13.680;2023-04-08T02:01:21;100096.81;;;17.96;52.35
25638;BME280;13496;51.040;13.680;2023-04-08T02:06:25;100089.09;;;17.94;52.11
25638;BME280;13496;51.040;13.680;2023-04-08T02:11:28;100089.09;;;17.94;52.34
25638;BME280;13496;51.040;13.680;2023-04-08T02:16:51;100091.91;;;17.93;52.30
25638;BME280;13496;51.040;13.680;2023-04-08T02:22:01;100102.75;;;17.89;52.04
25638;BME280;13496;51.040;13.680;2023-04-08T02:27:07;100106.38;;;17.88;52.13
25638;BME280;13496;51.040;13.680;2023-04-08T02:32:11;100099.97;;;17.91;52.22
25638;BME280;13496;51.040;13.680;2023-04-08T02:37:13;100094.25;;;17.87;52.23
25638;BME280;13496;51.040;13.680;2023-04-08T02:42:14;100105.56;;;17.88;52.28
25638;BME280;13496;51.040;13.680;2023-04-08T02:47:16;100103.09;;;17.86;52.08
25638;BME280;13496;51.040;13.680;2023-04-08T02:52:18;100114.59;;;17.85;52.01
25638;BME280;13496;51.040;13.680;2023-04-08T02:57:20;100120.84;;;17.84;51.69
25638;BME280;13496;51.040;13.680;2023-04-08T03:02:21;100116.56;;;17.83;52.17
25638;BME280;13496;51.040;13.680;2023-04-08T03:07:23;100121.19;;;17.81;52.36
25638;BME280;13496;51.040;13.680;2023-04-08T03:12:25;100117.09;;;17.79;52.14
25638;BME280;13496;51.040;13.680;2023-04-08T03:17:29;100111.03;;;17.78;52.30
25638;BME280;13496;51.040;13.680;2023-04-08T03:22:35;100112.66;;;17.79;52.28
25638;BME280;13496;51.040;13.680;2023-04-08T03:27:36;100113.66;;;17.78;52.25
25638;BME280;13496;51.040;13.680;2023-04-08T03:32:38;100115.28;;;17.79;52.46
25638;BME280;13496;51.040;13.680;2023-04-08T03:37:40;100116.47;;;17.77;52.42
25638;BME280;13496;51.040;13.680;2023-04-08T03:42:41;100111.38;;;17.75;52.04
25638;BME280;13496;51.040;13.680;2023-04-08T03:47:43;100111.38;;;17.75;52.08
25638;BME280;13496;51.040;13.680;2023-04-08T03:52:45;100109.72;;;17.74;52.06
25638;BME280;13496;51.040;13.680;2023-04-08T03:57:46;100114.00;;;17.75;52.20
25638;BME280;13496;51.040;13.680;2023-04-08T04:02:48;100113.50;;;17.72;52.17
25638;BME280;13496;51.040;13.680;2023-04-08T04:07:49;100118.94;;;17.70;52.00
25638;BME280;13496;51.040;13.680;2023-04-08T04:12:51;100120.56;;;17.71;52.16
25638;BME280;13496;51.040;13.680;2023-04-08T04:17:53;100129.41;;;17.70;52.26
25638;BME280;13496;51.040;13.680;2023-04-08T04:22:54;100129.41;;;17.70;52.16
25638;BME280;13496;51.040;13.680;2023-04-08T04:27:56;100124.31;;;17.69;51.77
25638;BME280;13496;51.040;13.680;2023-04-08T04:32:57;100131.56;;;17.66;52.31
25638;BME280;13496;51.040;13.680;2023-04-08T04:37:59;100128.75;;;17.68;51.94
25638;BME280;13496;51.040;13.680;2023-04-08T04:43:01;100136.00;;;17.66;52.13
25638;BME280;13496;51.040;13.680;2023-04-08T04:48:03;100144.69;;;17.66;52.09
25638;BME280;13496;51.040;13.680;2023-04-08T04:53:05;100150.13;;;17.65;52.02
25638;BME280;13496;51.040;13.680;2023-04-08T04:58:06;100162.25;;;17.66;51.89
25638;BME280;13496;51.040;13.680;2023-04-08T05:03:08;100162.59;;;17.63;52.26
25638;BME280;13496;51.040;13.680;2023-04-08T05:08:10;100165.22;;;17.63;52.14
25638;BME280;13496;51.040;13.680;2023-04-08T05:13:12;100168.81;;;17.62;52.27
25638;BME280;13496;51.040;13.680;2023-04-08T05:18:13;100173.88;;;17.63;52.27
25638;BME280;13496;51.040;13.680;2023-04-08T05:23:15;100169.47;;;17.64;52.21
25638;BME280;13496;51.040;13.680;2023-04-08T05:28:17;100171.44;;;17.62;51.87
25638;BME280;13496;51.040;13.680;2023-04-08T05:33:19;100170.13;;;17.66;52.51
25638;BME280;13496;51.040;13.680;2023-04-08T05:38:20;100172.75;;;17.66;52.24
25638;BME280;13496;51.040;13.680;2023-04-08T05:43:22;100177.00;;;17.67;52.31
25638;BME280;13496;51.040;13.680;2023-04-08T05:48:25;100189.13;;;17.68;52.53
25638;BME280;13496;51.040;13.680;2023-04-08T05:53:27;100185.06;;;17.65;52.62
25638;BME280;13496;51.040;13.680;2023-04-08T05:58:28;100189.50;;;17.65;52.64
25638;BME280;13496;51.040;13.680;2023-04-08T06:03:30;100192.09;;;17.65;52.23
25638;BME280;13496;51.040;13.680;2023-04-08T06:08:32;100196.19;;;17.67;52.87
25638;BME280;13496;51.040;13.680;2023-04-08T06:13:33;100198.00;;;17.67;52.56
25638;BME280;13496;51.040;13.680;2023-04-08T06:18:35;100212.09;;;17.66;52.41
25638;BME280;13496;51.040;13.680;2023-04-08T06:23:37;100208.66;;;17.65;52.25
25638;BME280;13496;51.040;13.680;2023-04-08T06:28:38;100218.97;;;17.67;52.64
25638;BME280;13496;51.040;13.680;2023-04-08T06:33:40;100220.59;;;17.68;52.80
25638;BME280;13496;51.040;13.680;2023-04-08T06:38:42;100221.59;;;17.67;52.38
25638;BME280;13496;51.040;13.680;2023-04-08T06:43:43;100218.66;;;17.70;52.37
25638;BME280;13496;51.040;13.680;2023-04-08T06:48:45;100226.66;;;17.69;52.56
25638;BME280;13496;51.040;13.680;2023-04-08T06:53:47;100231.91;;;17.69;52.48
25638;BME280;13496;51.040;13.680;2023-04-08T06:58:48;100234.38;;;17.70;52.37
25638;BME280;13496;51.040;13.680;2023-04-08T07:03:50;100247.31;;;17.72;52.84
25638;BME280;13496;51.040;13.680;2023-04-08T07:08:51;100258.63;;;17.72;52.56
25638;BME280;13496;51.040;13.680;2023-04-08T07:13:53;100257.81;;;17.72;52.20
25638;BME280;13496;51.040;13.680;2023-04-08T07:18:55;100265.06;;;17.70;52.11
25638;BME280;13496;51.040;13.680;2023-04-08T07:23:57;100276.38;;;17.70;52.32
25638;BME280;13496;51.040;13.680;2023-04-08T07:28:58;100275.38;;;17.71;52.42
25638;BME280;13496;51.040;13.680;2023-04-08T07:34:00;100278.50;;;17.75;52.29
25638;BME280;13496;51.040;13.680;2023-04-08T07:39:02;100282.63;;;17.77;52.07
25638;BME280;13496;51.040;13.680;2023-04-08T07:44:03;100286.22;;;17.84;52.02
25638;BME280;13496;51.040;13.680;2023-04-08T07:49:05;100296.72;;;17.84;52.30
25638;BME280;13496;51.040;13.680;2023-04-08T07:54:07;100301.94;;;17.84;51.89
25638;BME280;13496;51.040;13.680;2023-04-08T07:59:10;100304.41;;;17.86;51.82
25638;BME280;13496;51.040;13.680;2023-04-08T08:04:12;100304.59;;;17.84;52.23
25638;BME280;13496;51.040;13.680;2023-04-08T08:09:14;100307.84;;;17.86;52.36
25638;BME280;13496;51.040;13.680;2023-04-08T08:14:15;100311.94;;;17.89;52.30
25638;BME280;13496;51.040;13.680;2023-04-08T08:19:17;100317.50;;;17.94;51.64
25638;BME280;13496;51.040;13.680;2023-04-08T08:24:19;100319.44;;;18.00;51.82
25638;BME280;13496;51.040;13.680;2023-04-08T08:29:20;100318.28;;;18.03;51.46
25638;BME280;13496;51.040;13.680;2023-04-08T08:34:22;100326.31;;;18.01;51.64
25638;BME280;13496;51.040;13.680;2023-04-08T08:39:23;100340.63;;;17.99;52.04
25638;BME280;13496;51.040;13.680;2023-04-08T08:44:25;100339.44;;;18.01;51.96
25638;BME280;13496;51.040;13.680;2023-04-08T08:49:27;100339.63;;;18.00;51.99
25638;BME280;13496;51.040;13.680;2023-04-08T08:54:29;100350.13;;;18.00;51.69
25638;BME280;13496;51.040;13.680;2023-04-08T08:59:31;100360.63;;;18.00;51.87
25638;BME280;13496;51.040;13.680;2023-04-08T09:04:35;100353.69;;;18.15;51.20
25638;BME280;13496;51.040;13.680;2023-04-08T09:09:49;100369.59;;;18.22;51.31
25638;BME280;13496;51.040;13.680;2023-04-08T09:15:02;100372.84;;;18.24;51.61
25638;BME280;13496;51.040;13.680;2023-04-08T09:20:11;100369.59;;;18.22;51.29
25638;BME280;13496;51.040;13.680;2023-04-08T09:25:32;100381.25;;;18.19;51.85
25638;BME280;13496;51.040;13.680;2023-04-08T09:30:34;100390.16;;;18.10;52.15
25638;BME280;13496;51.040;13.680;2023-04-08T09:35:35;100388.84;;;18.06;52.08
25638;BME280;13496;51.040;13.680;2023-04-08T09:40:39;100387.88;;;18.07;51.97
25638;BME280;13496;51.040;13.680;2023-04-08T09:45:43;100390.31;;;18.08;51.93
25638;BME280;13496;51.040;13.680;2023-04-08T09:50:48;100390.16;;;18.10;51.90
25638;BME280;13496;51.040;13.680;2023-04-08T09:55:54;100388.69;;;18.07;51.94
25638;BME280;13496;51.040;13.680;2023-04-08T10:00:57;100393.59;;;18.10;51.97
25638;BME280;13496;51.040;13.680;2023-04-08T10:06:02;100400.28;;;18.21;51.73
25638;BME280;13496;51.040;13.680;2023-04-08T10:11:04;100393.69;;;18.33;51.52
25638;BME280;13496;51.040;13.680;2023-04-08T10:16:24;100396.97;;;18.35;51.54
25638;BME280;13496;51.040;13.680;2023-04-08T10:21:35;100403.50;;;18.40;51.41
25638;BME280;13496;51.040;13.680;2023-04-08T10:26:41;100413.88;;;18.33;51.75
25638;BME280;13496;51.040;13.680;2023-04-08T10:31:44;100415.03;;;18.30;51.84
25638;BME280;13496;51.040;13.680;2023-04-08T10:36:48;100409.78;;;18.30;51.93
25638;BME280;13496;51.040;13.680;2023-04-08T10:41:50;100417.63;;;18.38;51.47
25638;BME280;13496;51.040;13.680;2023-04-08T10:46:52;100408.44;;;18.34;51.78
25638;BME280;13496;51.040;13.680;2023-04-08T10:51:54;100404.84;;;18.35;51.93
25638;BME280;13496;51.040;13.680;2023-04-08T10:56:56;100404.31;;;18.40;51.44
25638;BME280;13496;51.040;13.680;2023-04-08T11:01:58;100409.69;;;18.55;51.33
25638;BME280;13496;51.040;13.680;2023-04-08T11:07:05;100411.44;;;18.62;51.57
25638;BME280;13496;51.040;13.680;2023-04-08T11:12:09;100414.03;;;18.40;50.69
25638;BME280;13496;51.040;13.680;2023-04-08T11:17:14;100415.47;;;18.42;51.51
25638;BME280;13496;51.040;13.680;2023-04-08T11:22:16;100415.66;;;18.41;51.49
25638;BME280;13496;51.040;13.680;2023-04-08T11:27:18;100422.06;;;18.38;51.69
25638;BME280;13496;51.040;13.680;2023-04-08T11:32:19;100430.94;;;18.37;51.69
25638;BME280;13496;51.040;13.680;2023-04-08T11:37:24;100430.13;;;18.36;51.61
25638;BME280;13496;51.040;13.680;2023-04-08T11:42:29;100437.34;;;18.34;51.88
25638;BME280;13496;51.040;13.680;2023-04-08T11:47:32;100446.69;;;18.37;51.54
25638;BME280;13496;51.040;13.680;2023-04-08T11:52:44;100439.94;;;18.43;51.79
25638;BME280;13496;51.040;13.680;2023-04-08T11:57:46;100438.59;;;18.55;51.24
25638;BME280;13496;51.040;13.680;2023-04-08T12:02:48;100431.00;;;18.60;51.42
25638;BME280;13496;51.040;13.680;2023-04-08T12:07:51;100437.03;;;18.69;51.05
25638;BME280;13496;51.040;13.680;2023-04-08T12:12:53;100439.34;;;18.72;50.66
25638;BME280;13496;51.040;13.680;2023-04-08T12:17:54;100441.31;;;18.70;50.85
25638;BME280;13496;51.040;13.680;2023-04-08T12:22:56;100445.63;;;18.62;51.62
25638;BME280;13496;51.040;13.680;2023-04-08T12:27:58;100460.56;;;18.62;51.50
25638;BME280;13496;51.040;13.680;2023-04-08T12:32:59;100459.44;;;18.56;51.35
25638;BME280;13496;51.040;13.680;2023-04-08T12:38:01;100457.94;;;18.54;51.51
25638;BME280;13496;51.040;13.680;2023-04-08T12:43:03;100461.44;;;18.54;51.52
25638;BME280;13496;51.040;13.680;2023-04-08T12:48:04;100468.66;;;18.52;51.58
25638;BME280;13496;51.040;13.680;2023-04-08T12:53:06;100468.34;;;18.47;51.72
25638;BME280;13496;51.040;13.680;2023-04-08T12:58:08;100476.72;;;18.51;51.85
25638;BME280;13496;51.040;13.680;2023-04-08T13:03:10;100474.91;;;18.51;51.75
25638;BME280;13496;51.040;13.680;2023-04-08T13:08:11;100475.38;;;18.55;51.62
25638;BME280;13496;51.040;13.680;2023-04-08T13:13:13;100472.91;;;18.61;51.34
25638;BME280;13496;51.040;13.680;2023-04-08T13:18:15;100474.19;;;18.74;51.31
25638;BME280;13496;51.040;13.680;2023-04-08T13:23:17;100479.88;;;18.85;50.64
25638;BME280;13496;51.040;13.680;2023-04-08T13:28:18;100493.31;;;18.91;50.92
25638;BME280;13496;51.040;13.680;2023-04-08T13:33:20;100489.72;;;18.92;50.80
25638;BME280;13496;51.040;13.680;2023-04-08T13:38:22;100489.53;;;18.93;50.58
25638;BME280;13496;51.040;13.680;2023-04-08T13:43:24;100486.03;;;19.01;50.64
25638;BME280;13496;51.040;13.680;2023-04-08T13:48:26;100492.13;;;19.01;50.67
25638;BME280;13496;51.040;13.680;2023-04-08T13:53:27;100488.03;;;18.99;50.63
25638;BME280;13496;51.040;13.680;2023-04-08T13:58:29;100482.78;;;18.91;50.63
25638;BME280;13496;51.040;13.680;2023-04-08T14:03:31;100487.44;;;18.89;51.06
25638;BME280;13496;51.040;13.680;2023-04-08T14:08:32;100491.69;;;18.90;50.87
25638;BME280;13496;51.040;13.680;2023-04-08T14:13:34;100491.97;;;18.95;50.64
25638;BME280;13496;51.040;13.680;2023-04-08T14:18:36;100504.00;;;18.89;50.94
25638;BME280;13496;51.040;13.680;2023-04-08T14:23:38;100503.88;;;18.82;50.95
25638;BME280;13496;51.040;13.680;2023-04-08T14:28:39;100503.53;;;18.85;51.05
25638;BME280;13496;51.040;13.680;2023-04-08T14:33:41;100505.66;;;18.90;50.51
25638;BME280;13496;51.040;13.680;2023-04-08T14:38:43;100509.59;;;18.86;50.70
25638;BME280;13496;51.040;13.680;2023-04-08T14:43:44;100505.97;;;18.87;50.86
25638;BME280;13496;51.040;13.680;2023-04-08T14:48:46;100508.63;;;18.87;50.63
25638;BME280;13496;51.040;13.680;2023-04-08T14:53:48;100516.34;;;18.89;50.93
25638;BME280;13496;51.040;13.680;2023-04-08T14:58:49;100517.97;;;18.90;50.43
25638;BME280;13496;51.040;13.680;2023-04-08T15:03:51;100519.59;;;18.91;50.92
25638;BME280;13496;51.040;13.680;2023-04-08T15:08:53;100516.50;;;18.87;50.52
25638;BME280;13496;51.040;13.680;2023-04-08T15:13:54;100511.72;;;18.91;50.93
25638;BME280;13496;51.040;13.680;2023-04-08T15:18:56;100523.25;;;18.90;50.73
25638;BME280;13496;51.040;13.680;2023-04-08T15:24:00;100529.97;;;18.92;50.48
25638;BME280;13496;51.040;13.680;2023-04-08T15:29:02;100525.53;;;18.93;50.46
25638;BME280;13496;51.040;13.680;2023-04-08T15:34:04;100524.25;;;18.89;50.62
25638;BME280;13496;51.040;13.680;2023-04-08T15:39:06;100535.28;;;18.84;51.05
25638;BME280;13496;51.040;13.680;2023-04-08T15:44:08;100540.19;;;18.79;50.87
25638;BME280;13496;51.040;13.680;2023-04-08T15:49:10;100543.00;;;18.77;50.96
25638;BME280;13496;51.040;13.680;2023-04-08T15:54:11;100546.97;;;18.73;51.11
25638;BME280;13496;51.040;13.680;2023-04-08T15:59:13;100551.41;;;18.73;51.13
25638;BME280;13496;51.040;13.680;2023-04-08T16:04:15;100559.44;;;18.71;51.31
25638;BME280;13496;51.040;13.680;2023-04-08T16:09:17;100557.78;;;18.70;51.20
25638;BME280;13496;51.040;13.680;2023-04-08T16:14:22;100567.63;;;18.68;51.12
25638;BME280;13496;51.040;13.680;2023-04-08T16:19:24;100579.47;;;18.64;51.16
25638;BME280;13496;51.040;13.680;2023-04-08T16:24:27;100574.22;;;18.64;51.45
25638;BME280;13496;51.040;13.680;2023-04-08T16:29:28;100583.44;;;18.60;51.33
25638;BME280;13496;51.040;13.680;2023-04-08T16:34:30;100587.06;;;18.59;51.18
25638;BME280;13496;51.040;13.680;2023-04-08T16:39:32;100589.72;;;18.51;51.55
25638;BME280;13496;51.040;13.680;2023-04-08T16:44:33;100591.66;;;18.49;51.76
25638;BME280;13496;51.040;13.680;2023-04-08T16:49:35;100593.47;;;18.48;51.63
25638;BME280;13496;51.040;13.680;2023-04-08T16:54:37;100602.50;;;18.46;51.50
25638;BME280;13496;51.040;13.680;2023-04-08T16:59:38;100594.81;;;18.44;51.56
25638;BME280;13496;51.040;13.680;2023-04-08T17:04:40;100610.72;;;18.43;51.39
25638;BME280;13496;51.040;13.680;2023-04-08T17:09:42;100609.09;;;18.42;51.53
25638;BME280;13496;51.040;13.680;2023-04-08T17:14:44;100608.09;;;18.43;51.05
25638;BME280;13496;51.040;13.680;2023-04-08T17:19:45;100625.84;;;18.41;51.63
25638;BME280;13496;51.040;13.680;2023-04-08T17:24:47;100625.34;;;18.37;52.02
25638;BME280;13496;51.040;13.680;2023-04-08T17:29:49;100631.41;;;18.37;51.40
25638;BME280;13496;51.040;13.680;2023-04-08T17:34:56;100637.00;;;18.34;51.86
25638;BME280;13496;51.040;13.680;2023-04-08T17:39:58;100642.25;;;18.34;51.46
25638;BME280;13496;51.040;13.680;2023-04-08T17:44:59;100640.63;;;18.33;51.91
25638;BME280;13496;51.040;13.680;2023-04-08T17:50:03;100650.47;;;18.31;51.57
25638;BME280;13496;51.040;13.680;2023-04-08T17:55:05;100649.81;;;18.29;51.49
25638;BME280;13496;51.040;13.680;2023-04-08T18:00:08;100660.47;;;18.28;51.36
25638;BME280;13496;51.040;13.680;2023-04-08T18:05:10;100668.34;;;18.28;51.73
25638;BME280;13496;51.040;13.680;2023-04-08T18:10:12;100672.28;;;18.24;51.66
25638;BME280;13496;51.040;13.680;2023-04-08T18:15:13;100674.91;;;18.24;51.74
25638;BME280;13496;51.040;13.680;2023-04-08T18:20:15;100681.34;;;18.21;51.57
25638;BME280;13496;51.040;13.680;2023-04-08T18:25:17;100690.19;;;18.20;51.56
25638;BME280;13496;51.040;13.680;2023-04-08T18:30:22;100692.97;;;18.19;51.48
25638;BME280;13496;51.040;13.680;2023-04-08T18:35:24;100698.91;;;18.21;51.48
25638;BME280;13496;51.040;13.680;2023-04-08T18:40:26;100703.66;;;18.17;51.46
25638;BME280;13496;51.040;13.680;2023-04-08T18:45:28;100715.00;;;18.18;52.06
25638;BME280;13496;51.040;13.680;2023-04-08T18:50:31;100715.13;;;18.16;51.68
25638;BME280;13496;51.040;13.680;2023-04-08T18:55:32;100713.69;;;18.13;52.12
25638;BME280;13496;51.040;13.680;2023-04-08T19:00:36;100722.50;;;18.12;52.35
25638;BME280;13496;51.040;13.680;2023-04-08T19:05:41;100732.19;;;18.12;52.21
25638;BME280;13496;51.040;13.680;2023-04-08T19:10:43;100732.06;;;18.13;52.59
25638;BME280;13496;51.040;13.680;2023-04-08T19:15:44;100728.75;;;18.11;52.53
25638;BME280;13496;51.040;13.680;2023-04-08T19:20:46;100728.75;;;18.11;52.52
25638;BME280;13496;51.040;13.680;2023-04-08T19:25:48;100731.56;;;18.10;52.66
25638;BME280;13496;51.040;13.680;2023-04-08T19:30:50;100726.94;;;18.12;52.65
25638;BME280;13496;51.040;13.680;2023-04-08T19:35:52;100734.19;;;18.10;52.82
25638;BME280;13496;51.040;13.680;2023-04-08T19:40:53;100734.31;;;18.08;52.75
25638;BME280;13496;51.040;13.680;2023-04-08T19:45:56;100725.63;;;18.08;52.77
25638;BME280;13496;51.040;13.680;2023-04-08T19:50:58;100728.25;;;18.08;52.23
25638;BME280;13496;51.040;13.680;2023-04-08T19:56:01;100733.69;;;18.06;52.44
25638;BME280;13496;51.040;13.680;2023-04-08T20:01:03;100743.38;;;18.06;52.65
25638;BME280;13496;51.040;13.680;2023-04-08T20:06:04;100740.06;;;18.04;52.47
25638;BME280;13496;51.040;13.680;2023-04-08T20:11:06;100746.13;;;18.04;52.75
25638;BME280;13496;51.040;13.680;2023-04-08T20:16:07;100741.69;;;18.05;52.77
25638;BME280;13496;51.040;13.680;2023-04-08T20:21:09;100743.69;;;18.03;52.54
25638;BME280;13496;51.040;13.680;2023-04-08T20:26:14;100745.50;;;18.02;52.60
25638;BME280;13496;51.040;13.680;2023-04-08T20:31:16;100750.88;;;18.01;52.85
25638;BME280;13496;51.040;13.680;2023-04-08T20:36:17;100742.34;;;17.99;52.72
25638;BME280;13496;51.040;13.680;2023-04-08T20:41:19;100734.63;;;17.97;52.65
25638;BME280;13496;51.040;13.680;2023-04-08T20:46:21;100736.44;;;17.97;52.69
25638;BME280;13496;51.040;13.680;2023-04-08T20:51:24;100741.00;;;17.95;52.63
25638;BME280;13496;51.040;13.680;2023-04-08T20:56:27;100747.25;;;17.94;52.93
25638;BME280;13496;51.040;13.680;2023-04-08T21:01:29;100748.88;;;17.95;52.83
25638;BME280;13496;51.040;13.680;2023-04-08T21:06:31;100743.81;;;17.93;52.96
25638;BME280;13496;51.040;13.680;2023-04-08T21:11:33;100740.84;;;17.88;52.65
25638;BME280;13496;51.040;13.680;2023-04-08T21:16:35;100744.44;;;17.87;52.89
25638;BME280;13496;51.040;13.680;2023-04-08T21:21:36;100758.22;;;17.89;53.01
25638;BME280;13496;51.040;13.680;2023-04-08T21:26:38;100769.03;;;17.86;52.96
25638;BME280;13496;51.040;13.680;2023-04-08T21:31:40;100768.22;;;17.85;52.91
25638;BME280;13496;51.040;13.680;2023-04-08T21:36:42;100750.84;;;17.84;52.94
25638;BME280;13496;51.040;13.680;2023-04-08T21:41:43;100755.28;;;17.84;52.59
25638;BME280;13496;51.040;13.680;2023-04-08T21:46:47;100778.22;;;17.82;53.02
25638;BME280;13496;51.040;13.680;2023-04-08T21:51:49;100786.09;;;17.82;52.45
25638;BME280;13496;51.040;13.680;2023-04-08T21:56:51;100781.00;;;17.80;52.56
25638;BME280;13496;51.040;13.680;2023-04-08T22:01:52;100765.56;;;17.77;52.82
25638;BME280;13496;51.040;13.680;2023-04-08T22:06:54;100764.75;;;17.77;52.90
25638;BME280;13496;51.040;13.680;2023-04-08T22:11:56;100763.09;;;17.76;53.01
25638;BME280;13496;51.040;13.680;2023-04-08T22:16:58;100765.19;;;17.72;52.96
25638;BME280;13496;51.040;13.680;2023-04-08T22:22:00;100755.53;;;17.73;52.91
25638;BME280;13496;51.040;13.680;2023-04-08T22:27:01;100750.41;;;17.71;53.12
25638;BME280;13496;51.040;13.680;2023-04-08T22:32:03;100752.38;;;17.69;53.12
25638;BME280;13496;51.040;13.680;2023-04-08T22:37:05;100747.28;;;17.67;52.90
25638;BME280;13496;51.040;13.680;2023-04-08T22:42:07;100741.91;;;17.69;52.98
25638;BME280;13496;51.040;13.680;2023-04-08T22:47:09;100741.91;;;17.69;52.90
25638;BME280;13496;51.040;13.680;2023-04-08T22:52:10;100740.22;;;17.68;52.79
25638;BME280;13496;51.040;13.680;2023-04-08T22:57:12;100740.56;;;17.65;52.82
25638;BME280;13496;51.040;13.680;2023-04-08T23:02:13;100739.88;;;17.63;52.77
25638;BME280;13496;51.040;13.680;2023-04-08T23:07:15;100741.84;;;17.61;53.12
25638;BME280;13496;51.040;13.680;2023-04-08T23:12:17;100743.63;;;17.60;52.90
25638;BME280;13496;51.040;13.680;2023-04-08T23:17:19;100741.19;;;17.59;52.83
25638;BME280;13496;51.040;13.680;2023-04-08T23:22:20;100749.19;;;17.57;52.99
25638;BME280;13496;51.040;13.680;2023-04-08T23:27:22;100759.19;;;17.54;52.86
25638;BME280;13496;51.040;13.680;2023-04-08T23:32:25;100757.53;;;17.53;53.18
25638;BME280;13496;51.040;13.680;2023-04-08T23:37:27;100762.66;;;17.54;53.09
25638;BME280;13496;51.040;13.680;2023-04-08T23:42:29;100761.81;;;17.54;52.84
25638;BME280;13496;51.040;13.680;2023-04-08T23:47:30;100766.91;;;17.55;53.10
25638;BME280;13496;51.040;13.680;2023-04-08T23:52:32;100759.19;;;17.54;52.74
25638;BME280;13496;51.040;13.680;2023-04-08T23:57:34;100769.19;;;17.50;52.95
